< < Back
Terminal Aerodrome Forecast


Current Version              Previous Versions:   1  2  3  4  5  6  7  8  9  

Terminal Aerodrome Forecast

817
FTUS42 KILM 232300
TAFILM
TAF
KILM 232326Z 2400/2424 13011G20KT P6SM VCSH SCT007 BKN020 BKN040
     FM240200 17017KT 4SM -SHRA BR SCT007 BKN010 OVC025
      TEMPO 2403/2407 20015G30KT 1SM +TSRA SCT007 BKN015CB
     FM240700 20012KT P6SM VCSH SCT006 BKN016
     FM241000 21011KT P6SM BKN006
     FM241600 21014G20KT P6SM SCT007 OVC015=

Latest METAR

387
SAUS70 KWBC 240300 RRD
MTRILM
METAR KILM 240253Z 14018G31KT 9SM BKN011 OVC028 20/18 A2987 RMK AO2 PK
WND 13031/0249 SLP115 60005 T02000183 58026


USA.gov is the U.S. government's official web portal to all federal, state and local government web resources and services.